Time;durP1;ratioP1;P1;durP2;ratioP2;P2;SDS_P1;SDS_P2;PMS_P1;PMS_P2;Temp;Humidity;BMP_temperature;BMP_pressure;BME280_temperature;BME280_humidity;BME280_pressure;Samples;Min_cycle;Max_cycle;Signal;HPM_P1;HPM_P2
2021/01/23 00:00:18;;;;;;;3.50;3.00;;;;;;;;;;5020951;28;20235;-85
2021/01/23 00:02:44;;;;;;;4.57;4.18;;;;;;;;;;5038535;28;20524;-86
2021/01/23 00:05:10;;;;;;;3.90;3.45;;;;;;;;;;5024889;28;20204;-81
2021/01/23 00:07:36;;;;;;;9.50;3.90;;;;;;;;;;5024525;28;20201;-85
2021/01/23 00:10:02;;;;;;;5.47;3.10;;;;;;;;;;5022128;28;20194;-84
2021/01/23 00:12:28;;;;;;;5.03;3.00;;;;;;;;;;5024570;28;20247;-82
2021/01/23 00:14:55;;;;;;;6.55;3.60;;;;;;;;;;5025062;28;20228;-83
2021/01/23 00:17:21;;;;;;;6.32;3.30;;;;;;;;;;5038553;28;20181;-82
2021/01/23 00:19:47;;;;;;;4.20;3.10;;;;;;;;;;5029624;28;20212;-82
2021/01/23 00:22:13;;;;;;;3.30;3.00;;;;;;;;;;5040215;28;20508;-84
2021/01/23 00:24:39;;;;;;;6.75;3.50;;;;;;;;;;5030157;28;20186;-83
2021/01/23 00:27:05;;;;;;;4.97;3.08;;;;;;;;;;5041911;28;20189;-84
2021/01/23 00:29:31;;;;;;;5.78;3.20;;;;;;;;;;5022071;28;20185;-82
2021/01/23 00:31:57;;;;;;;3.30;2.95;;;;;;;;;;5028573;28;20226;-82
2021/01/23 00:34:23;;;;;;;4.05;2.58;;;;;;;;;;5044554;28;20244;-83
2021/01/23 00:36:49;;;;;;;3.70;2.90;;;;;;;;;;5031488;28;20182;-82
2021/01/23 00:39:15;;;;;;;4.32;2.40;;;;;;;;;;5037643;28;20179;-81
2021/01/23 00:41:41;;;;;;;6.57;3.60;;;;;;;;;;5048771;28;20221;-83
2021/01/23 00:44:07;;;;;;;4.05;3.13;;;;;;;;;;5031249;28;20182;-81
2021/01/23 00:46:33;;;;;;;5.45;3.33;;;;;;;;;;5040472;28;20193;-86
2021/01/23 00:48:59;;;;;;;8.50;2.87;;;;;;;;;;5041306;28;20258;-83
2021/01/23 00:51:25;;;;;;;3.28;2.67;;;;;;;;;;5037259;28;20810;-85
2021/01/23 00:53:51;;;;;;;4.75;2.63;;;;;;;;;;5049546;28;20274;-82
2021/01/23 00:56:17;;;;;;;3.70;2.88;;;;;;;;;;5033536;28;20205;-82
2021/01/23 00:58:43;;;;;;;4.80;2.97;;;;;;;;;;5029153;28;20185;-83
2021/01/23 01:01:09;;;;;;;3.22;2.63;;;;;;;;;;5046046;28;20244;-82
2021/01/23 01:03:35;;;;;;;6.60;3.63;;;;;;;;;;5054358;28;20197;-82
2021/01/23 01:06:01;;;;;;;3.72;3.40;;;;;;;;;;5050020;28;20201;-83
2021/01/23 01:08:27;;;;;;;6.55;3.10;;;;;;;;;;5048635;28;20198;-83
2021/01/23 01:10:53;;;;;;;4.28;2.60;;;;;;;;;;5039056;28;20193;-83
2021/01/23 01:13:20;;;;;;;4.85;2.75;;;;;;;;;;5055008;28;20194;-83
2021/01/23 01:15:46;;;;;;;5.63;2.65;;;;;;;;;;5048744;28;20288;-84
2021/01/23 01:18:12;;;;;;;2.83;2.60;;;;;;;;;;5043323;28;20178;-82
2021/01/23 01:20:38;;;;;;;3.75;2.60;;;;;;;;;;5042287;28;20381;-85
2021/01/23 01:23:04;;;;;;;8.57;3.17;;;;;;;;;;5044098;28;20182;-82
2021/01/23 01:25:30;;;;;;;8.95;2.78;;;;;;;;;;5035643;28;20186;-81
2021/01/23 01:27:56;;;;;;;3.30;2.55;;;;;;;;;;5034505;28;20190;-82
2021/01/23 01:30:22;;;;;;;5.13;2.90;;;;;;;;;;5041009;28;20177;-83
2021/01/23 01:32:48;;;;;;;5.75;2.80;;;;;;;;;;5037386;28;20281;-85
2021/01/23 01:35:14;;;;;;;7.70;2.95;;;;;;;;;;5036631;28;20205;-82
2021/01/23 01:37:40;;;;;;;4.15;2.70;;;;;;;;;;5031350;28;20594;-81
2021/01/23 01:40:07;;;;;;;2.70;2.20;;;;;;;;;;5033570;28;20194;-81
2021/01/23 01:42:33;;;;;;;5.28;2.80;;;;;;;;;;5024546;28;20183;-85
2021/01/23 01:44:59;;;;;;;6.35;3.10;;;;;;;;;;5037666;28;20273;-83
2021/01/23 01:47:25;;;;;;;3.72;2.50;;;;;;;;;;5019788;28;20217;-82
2021/01/23 01:49:52;;;;;;;3.83;2.50;;;;;;;;;;5033133;28;20198;-83
2021/01/23 01:52:18;;;;;;;5.90;2.60;;;;;;;;;;5030871;28;20197;-85
2021/01/23 01:54:44;;;;;;;5.63;2.80;;;;;;;;;;5031790;28;20201;-83
2021/01/23 01:57:10;;;;;;;4.95;2.80;;;;;;;;;;5025876;28;20424;-82
2021/01/23 01:59:36;;;;;;;5.43;2.40;;;;;;;;;;5023054;28;20244;-82
2021/01/23 02:02:05;;;;;;;3.67;2.42;;;;;;;;;;5015817;28;20205;-82
2021/01/23 02:04:37;;;;;;;3.67;2.70;;;;;;;;;;5027865;28;20186;-83
2021/01/23 02:07:17;;;;;;;4.85;2.63;;;;;;;;;;5017335;28;20197;-82
2021/01/23 02:09:49;;;;;;;3.70;2.40;;;;;;;;;;5024918;28;20189;-82
2021/01/23 02:12:21;;;;;;;4.97;2.60;;;;;;;;;;5045033;28;20205;-83
2021/01/23 02:15:06;;;;;;;6.35;2.92;;;;;;;;;;5040104;28;20209;-84
2021/01/23 02:17:35;;;;;;;3.80;2.00;;;;;;;;;;5023454;28;20185;-84
2021/01/23 02:20:16;;;;;;;3.38;2.40;;;;;;;;;;5034182;28;20186;-84
2021/01/23 02:23:00;;;;;;;3.95;2.67;;;;;;;;;;5030919;28;20201;-83
2021/01/23 02:25:26;;;;;;;8.43;2.35;;;;;;;;;;5033432;28;20241;-82
2021/01/23 02:27:56;;;;;;;6.07;2.33;;;;;;;;;;5012710;28;20186;-83
2021/01/23 02:30:27;;;;;;;5.60;2.90;;;;;;;;;;5024183;28;20186;-82
2021/01/23 02:32:55;;;;;;;3.22;2.75;;;;;;;;;;5043158;28;20248;-84
2021/01/23 02:35:23;;;;;;;5.95;2.60;;;;;;;;;;5051521;28;20240;-81
2021/01/23 02:37:50;;;;;;;6.95;3.53;;;;;;;;;;5032405;28;20525;-83
2021/01/23 02:40:16;;;;;;;7.53;3.60;;;;;;;;;;5046880;28;20209;-85
2021/01/23 02:42:42;;;;;;;5.18;2.60;;;;;;;;;;5046102;28;20173;-84
2021/01/23 02:45:10;;;;;;;4.35;2.90;;;;;;;;;;5036939;28;20237;-83
2021/01/23 02:47:36;;;;;;;4.03;3.15;;;;;;;;;;5037041;28;20193;-81
2021/01/23 02:50:03;;;;;;;3.65;2.90;;;;;;;;;;5032054;28;20182;-84
2021/01/23 02:52:56;;;;;;;3.78;3.20;;;;;;;;;;5031387;28;20193;-83
2021/01/23 02:55:24;;;;;;;8.23;3.25;;;;;;;;;;5034639;28;20237;-81
2021/01/23 02:57:52;;;;;;;3.78;2.60;;;;;;;;;;5057881;28;20174;-82
2021/01/23 03:00:18;;;;;;;6.20;3.00;;;;;;;;;;5038845;28;20297;-82
2021/01/23 03:02:47;;;;;;;4.28;2.72;;;;;;;;;;5049391;28;20193;-83
2021/01/23 03:05:14;;;;;;;4.15;2.95;;;;;;;;;;5040688;28;20197;-85
2021/01/23 03:07:40;;;;;;;5.40;3.55;;;;;;;;;;5041842;28;20194;-84
2021/01/23 03:10:10;;;;;;;3.20;2.88;;;;;;;;;;5052560;28;20627;-84
2021/01/23 03:12:36;;;;;;;7.00;3.08;;;;;;;;;;5036179;28;20186;-85
2021/01/23 03:15:02;;;;;;;4.60;3.42;;;;;;;;;;5041472;28;20237;-85
2021/01/23 03:17:28;;;;;;;3.28;2.75;;;;;;;;;;5041774;28;20189;-85
2021/01/23 03:19:54;;;;;;;3.05;2.75;;;;;;;;;;5042216;28;20197;-84
2021/01/23 03:22:20;;;;;;;3.38;2.47;;;;;;;;;;5031232;28;20676;-86
2021/01/23 03:24:46;;;;;;;8.10;3.80;;;;;;;;;;5045500;28;20254;-86
2021/01/23 03:27:12;;;;;;;4.65;2.85;;;;;;;;;;5041408;28;20424;-85
2021/01/23 03:29:38;;;;;;;8.70;3.35;;;;;;;;;;5041802;28;20198;-84
2021/01/23 03:32:04;;;;;;;3.85;3.42;;;;;;;;;;5046643;28;20218;-85
2021/01/23 03:34:30;;;;;;;5.80;2.88;;;;;;;;;;5048471;28;20212;-83
2021/01/23 03:36:56;;;;;;;3.85;2.75;;;;;;;;;;5032826;28;20179;-86
2021/01/23 03:39:22;;;;;;;4.50;2.80;;;;;;;;;;5038437;28;20174;-81
2021/01/23 03:41:48;;;;;;;7.80;2.63;;;;;;;;;;5050343;28;20189;-85
2021/01/23 03:44:14;;;;;;;4.50;3.03;;;;;;;;;;5033511;28;20193;-82
2021/01/23 03:46:40;;;;;;;5.20;2.47;;;;;;;;;;5041407;28;20185;-82
2021/01/23 03:49:06;;;;;;;5.25;2.75;;;;;;;;;;5040444;28;20459;-84
2021/01/23 03:51:32;;;;;;;5.20;3.23;;;;;;;;;;5039916;28;20209;-84
2021/01/23 03:53:58;;;;;;;5.32;3.25;;;;;;;;;;5051731;28;20493;-84
2021/01/23 03:56:24;;;;;;;8.73;3.42;;;;;;;;;;5031890;28;20197;-83
2021/01/23 03:58:50;;;;;;;3.17;2.85;;;;;;;;;;5028619;28;20216;-82
2021/01/23 04:01:16;;;;;;;7.10;3.15;;;;;;;;;;5037005;28;20181;-85
2021/01/23 04:03:42;;;;;;;5.32;2.92;;;;;;;;;;5045590;28;20181;-81
2021/01/23 04:06:09;;;;;;;6.72;3.47;;;;;;;;;;5037516;28;20174;-82
2021/01/23 04:08:35;;;;;;;6.53;3.17;;;;;;;;;;5051545;28;20193;-84
2021/01/23 04:11:01;;;;;;;4.13;3.72;;;;;;;;;;5032242;28;20226;-82
2021/01/23 04:13:27;;;;;;;5.75;3.20;;;;;;;;;;5045300;28;20707;-87
2021/01/23 04:15:53;;;;;;;4.65;3.40;;;;;;;;;;5043570;28;20291;-83
2021/01/23 04:18:20;;;;;;;6.22;2.80;;;;;;;;;;5041228;28;20178;-84
2021/01/23 04:20:46;;;;;;;5.13;2.90;;;;;;;;;;5037345;28;20185;-86
2021/01/23 04:23:11;;;;;;;3.53;2.90;;;;;;;;;;5033045;28;20205;-81
2021/01/23 04:25:37;;;;;;;3.35;3.05;;;;;;;;;;5045447;28;20562;-80
2021/01/23 04:28:04;;;;;;;8.73;3.45;;;;;;;;;;5029819;28;20190;-85
2021/01/23 04:30:30;;;;;;;4.70;3.45;;;;;;;;;;5041120;28;20190;-85
2021/01/23 04:32:56;;;;;;;6.75;3.55;;;;;;;;;;5038859;28;20229;-82
2021/01/23 04:35:22;;;;;;;5.38;3.33;;;;;;;;;;5036349;28;20505;-82
2021/01/23 04:37:48;;;;;;;5.78;4.03;;;;;;;;;;5030219;28;20432;-86
2021/01/23 04:40:14;;;;;;;4.15;3.08;;;;;;;;;;5045245;28;20190;-85
2021/01/23 04:42:41;;;;;;;3.80;3.10;;;;;;;;;;5039669;28;20182;-84
2021/01/23 04:45:07;;;;;;;2.75;2.47;;;;;;;;;;5036689;28;20206;-87
2021/01/23 04:47:33;;;;;;;4.00;3.03;;;;;;;;;;5034199;28;20213;-87
2021/01/23 04:49:59;;;;;;;4.82;3.25;;;;;;;;;;5029139;28;20205;-87
2021/01/23 04:52:25;;;;;;;4.40;2.83;;;;;;;;;;5041476;28;20182;-87
2021/01/23 04:54:51;;;;;;;3.22;2.70;;;;;;;;;;5032529;28;20457;-86
2021/01/23 04:57:17;;;;;;;3.97;2.67;;;;;;;;;;5036914;28;20178;-87
2021/01/23 04:59:43;;;;;;;6.97;3.10;;;;;;;;;;5049221;28;20194;-87
2021/01/23 05:02:19;;;;;;;5.15;2.83;;;;;;;;;;5031781;28;20440;-87
2021/01/23 05:04:46;;;;;;;3.85;2.58;;;;;;;;;;5030058;28;20196;-87
2021/01/23 05:07:23;;;;;;;5.25;2.58;;;;;;;;;;5043477;28;20186;-89
2021/01/23 05:09:49;;;;;;;6.15;2.65;;;;;;;;;;5033121;28;20185;-87
2021/01/23 05:12:18;;;;;;;5.45;2.88;;;;;;;;;;5036588;28;20201;-87
2021/01/23 05:14:54;;;;;;;4.75;2.17;;;;;;;;;;5049418;28;20202;-87
2021/01/23 05:17:20;;;;;;;4.38;2.42;;;;;;;;;;5049765;28;20170;-87
2021/01/23 05:19:46;;;;;;;5.25;2.40;;;;;;;;;;5045433;28;20205;-85
2021/01/23 05:22:12;;;;;;;3.22;2.90;;;;;;;;;;5043824;28;20186;-86
2021/01/23 05:24:48;;;;;;;2.92;2.60;;;;;;;;;;5046867;28;20194;-86
2021/01/23 05:27:14;;;;;;;6.50;3.97;;;;;;;;;;5041636;28;20184;-87
2021/01/23 05:29:59;;;;;;;9.70;2.50;;;;;;;;;;5038445;28;20193;-87
2021/01/23 05:32:25;;;;;;;5.22;2.95;;;;;;;;;;5029752;28;20226;-87
2021/01/23 05:34:51;;;;;;;6.43;2.85;;;;;;;;;;5054304;28;20209;-87
2021/01/23 05:37:30;;;;;;;4.13;2.53;;;;;;;;;;5037617;28;20210;-88
2021/01/23 05:39:57;;;;;;;2.85;2.30;;;;;;;;;;5042697;28;20620;-87
2021/01/23 05:42:23;;;;;;;7.28;2.60;;;;;;;;;;5039918;28;20181;-86
2021/01/23 05:45:07;;;;;;;4.18;3.13;;;;;;;;;;5038718;28;20181;-87
2021/01/23 05:47:34;;;;;;;5.72;2.90;;;;;;;;;;5039709;28;20186;-87
2021/01/23 05:50:00;;;;;;;3.88;2.00;;;;;;;;;;5055017;28;20192;-86
2021/01/23 05:52:26;;;;;;;4.82;2.50;;;;;;;;;;5044930;28;20182;-87
2021/01/23 05:54:52;;;;;;;4.93;3.10;;;;;;;;;;5032663;28;20194;-86
2021/01/23 05:57:18;;;;;;;5.38;2.40;;;;;;;;;;5035482;28;20205;-86
2021/01/23 05:59:44;;;;;;;4.75;2.17;;;;;;;;;;5050138;28;20183;-87
2021/01/23 06:02:11;;;;;;;10.25;3.28;;;;;;;;;;5051553;28;20182;-87
2021/01/23 06:04:42;;;;;;;3.88;2.67;;;;;;;;;;5049119;28;20237;-87
2021/01/23 06:07:08;;;;;;;5.20;2.60;;;;;;;;;;5037991;28;20185;-87
2021/01/23 06:09:34;;;;;;;3.10;2.80;;;;;;;;;;5042495;28;20182;-85
2021/01/23 06:12:00;;;;;;;3.83;2.67;;;;;;;;;;5049693;28;20190;-87
2021/01/23 06:14:39;;;;;;;3.33;3.00;;;;;;;;;;5035814;28;20560;-85
2021/01/23 06:17:05;;;;;;;3.20;2.35;;;;;;;;;;5040174;28;20267;-86
2021/01/23 06:19:31;;;;;;;3.47;2.47;;;;;;;;;;5043042;28;20643;-85
2021/01/23 06:21:57;;;;;;;11.43;3.30;;;;;;;;;;5027973;28;20186;-86
2021/01/23 06:24:32;;;;;;;4.72;2.75;;;;;;;;;;5043357;28;20447;-86
2021/01/23 06:26:59;;;;;;;4.25;3.05;;;;;;;;;;5048896;28;20194;-87
2021/01/23 06:29:31;;;;;;;3.17;2.85;;;;;;;;;;5033651;28;20190;-86
2021/01/23 06:31:57;;;;;;;4.75;2.70;;;;;;;;;;5035112;28;20304;-87
2021/01/23 06:34:25;;;;;;;3.28;2.42;;;;;;;;;;5038115;28;20745;-86
2021/01/23 06:37:10;;;;;;;3.88;2.60;;;;;;;;;;5039810;28;20178;-87
2021/01/23 06:39:55;;;;;;;3.90;2.53;;;;;;;;;;5040903;28;20178;-87
2021/01/23 06:42:22;;;;;;;3.17;2.75;;;;;;;;;;5037276;28;20174;-86
2021/01/23 06:44:48;;;;;;;3.10;2.67;;;;;;;;;;5036527;28;20201;-88
2021/01/23 06:47:14;;;;;;;2.90;2.40;;;;;;;;;;5034515;28;20272;-87
2021/01/23 06:49:43;;;;;;;2.70;2.38;;;;;;;;;;5041930;28;20193;-88
2021/01/23 06:52:10;;;;;;;2.88;2.50;;;;;;;;;;5053672;28;20274;-88
2021/01/23 06:54:44;;;;;;;3.85;3.00;;;;;;;;;;5038464;28;20205;-89
2021/01/23 06:57:11;;;;;;;3.88;2.90;;;;;;;;;;5036848;28;20177;-89
2021/01/23 06:59:37;;;;;;;4.40;3.28;;;;;;;;;;5036682;28;20258;-87
2021/01/23 07:02:04;;;;;;;3.42;2.78;;;;;;;;;;5031762;28;20178;-87
2021/01/23 07:04:33;;;;;;;5.70;3.28;;;;;;;;;;5032519;28;20253;-89
2021/01/23 07:07:00;;;;;;;5.80;3.17;;;;;;;;;;5043061;28;20199;-89
2021/01/23 07:09:45;;;;;;;2.95;2.60;;;;;;;;;;5043024;28;20170;-91
2021/01/23 07:12:12;;;;;;;3.88;2.95;;;;;;;;;;5045534;28;20186;-89
2021/01/23 07:14:38;;;;;;;5.90;4.00;;;;;;;;;;5037039;28;20209;-89
2021/01/23 07:17:04;;;;;;;4.88;4.07;;;;;;;;;;5036772;28;20247;-88
2021/01/23 07:19:30;;;;;;;4.45;3.88;;;;;;;;;;5056572;28;20435;-89
2021/01/23 07:21:56;;;;;;;4.40;3.57;;;;;;;;;;5040099;28;20171;-88
2021/01/23 07:24:22;;;;;;;4.25;3.45;;;;;;;;;;5035761;28;20447;-89
2021/01/23 07:26:48;;;;;;;4.60;4.20;;;;;;;;;;5051551;28;20709;-86
2021/01/23 07:29:14;;;;;;;5.68;4.13;;;;;;;;;;5043157;28;20188;-89
2021/01/23 07:31:40;;;;;;;8.70;4.07;;;;;;;;;;5050033;28;20226;-89
2021/01/23 07:34:10;;;;;;;6.07;4.45;;;;;;;;;;5040920;28;20261;-88
2021/01/23 07:36:38;;;;;;;4.65;3.80;;;;;;;;;;5038419;28;20173;-90
2021/01/23 07:39:11;;;;;;;4.50;3.65;;;;;;;;;;5047316;28;20182;-89
2021/01/23 07:41:38;;;;;;;7.38;4.15;;;;;;;;;;5033079;28;20194;-89
2021/01/23 07:44:06;;;;;;;5.82;4.20;;;;;;;;;;5040582;28;20186;-89
2021/01/23 07:46:33;;;;;;;5.05;4.20;;;;;;;;;;5045249;28;20198;-87
2021/01/23 07:48:59;;;;;;;6.38;4.10;;;;;;;;;;5042536;28;27448;-87
2021/01/23 07:51:30;;;;;;;4.80;4.00;;;;;;;;;;5042119;28;20178;-85
2021/01/23 07:54:05;;;;;;;5.10;4.13;;;;;;;;;;5050157;28;20205;-87
2021/01/23 07:56:31;;;;;;;6.90;3.45;;;;;;;;;;5039053;28;20260;-88
2021/01/23 07:58:57;;;;;;;4.22;3.83;;;;;;;;;;5058353;28;20244;-89
2021/01/23 08:01:23;;;;;;;4.32;3.13;;;;;;;;;;5037741;28;20190;-88
2021/01/23 08:03:49;;;;;;;5.35;3.17;;;;;;;;;;5041217;28;20173;-88
2021/01/23 08:06:25;;;;;;;5.35;3.17;;;;;;;;;;5041751;28;20228;-87
2021/01/23 08:08:52;;;;;;;5.60;3.55;;;;;;;;;;5038071;28;20189;-89
2021/01/23 08:11:33;;;;;;;3.10;2.90;;;;;;;;;;5059281;28;20177;-89
2021/01/23 08:14:09;;;;;;;4.57;2.70;;;;;;;;;;5038700;28;20205;-87
2021/01/23 08:16:35;;;;;;;2.70;2.30;;;;;;;;;;5033228;28;20694;-88
2021/01/23 08:19:05;;;;;;;4.35;3.00;;;;;;;;;;5037988;28;20216;-88
2021/01/23 08:21:31;;;;;;;6.35;3.15;;;;;;;;;;5041643;28;20245;-87
2021/01/23 08:23:57;;;;;;;5.05;2.67;;;;;;;;;;5037800;28;20209;-86
2021/01/23 08:26:36;;;;;;;3.20;2.90;;;;;;;;;;5048593;28;20189;-84
2021/01/23 08:29:02;;;;;;;2.88;1.70;;;;;;;;;;5030463;28;20224;-84
2021/01/23 08:31:28;;;;;;;9.63;2.35;;;;;;;;;;5031659;28;20348;-82
2021/01/23 08:33:55;;;;;;;3.45;1.23;;;;;;;;;;5025589;28;20241;-85
2021/01/23 08:36:25;;;;;;;9.88;2.30;;;;;;;;;;5020080;28;20233;-85
2021/01/23 08:38:55;;;;;;;5.35;2.08;;;;;;;;;;5021351;28;20185;-84
2021/01/23 08:41:21;;;;;;;1.73;1.27;;;;;;;;;;5039183;28;20204;-81
2021/01/23 08:43:47;;;;;;;4.18;1.45;;;;;;;;;;5033238;28;20202;-82
2021/01/23 08:46:13;;;;;;;1.30;1.20;;;;;;;;;;5029302;28;20182;-82
2021/01/23 08:48:39;;;;;;;4.70;1.35;;;;;;;;;;5027056;28;20216;-81
2021/01/23 08:51:05;;;;;;;1.77;1.20;;;;;;;;;;5019343;28;20189;-82
2021/01/23 08:53:31;;;;;;;3.88;1.58;;;;;;;;;;5029965;28;20205;-82
2021/01/23 08:55:57;;;;;;;6.05;2.20;;;;;;;;;;5034787;28;20189;-81
2021/01/23 08:58:23;;;;;;;3.88;2.95;;;;;;;;;;5029324;28;20197;-81
2021/01/23 09:00:49;;;;;;;2.60;2.40;;;;;;;;;;5029529;28;20201;-82
2021/01/23 09:03:15;;;;;;;4.35;2.10;;;;;;;;;;5021896;28;20162;-82
2021/01/23 09:05:41;;;;;;;6.63;3.20;;;;;;;;;;5031159;28;20256;-82
2021/01/23 09:08:07;;;;;;;2.83;2.10;;;;;;;;;;5030738;28;20185;-82
2021/01/23 09:10:33;;;;;;;2.42;2.10;;;;;;;;;;5016274;28;20221;-82
2021/01/23 09:12:59;;;;;;;2.95;1.73;;;;;;;;;;5027756;28;20186;-82
2021/01/23 09:15:25;;;;;;;1.25;1.15;;;;;;;;;;5022193;28;20326;-82
2021/01/23 09:17:51;;;;;;;2.65;1.70;;;;;;;;;;5029442;28;20182;-81
2021/01/23 09:20:17;;;;;;;2.07;1.30;;;;;;;;;;5038014;28;20371;-82
2021/01/23 09:22:43;;;;;;;3.80;1.58;;;;;;;;;;5033600;28;20472;-81
2021/01/23 09:25:09;;;;;;;4.68;1.98;;;;;;;;;;5029726;28;20678;-81
2021/01/23 09:27:35;;;;;;;2.35;1.85;;;;;;;;;;5021700;28;20229;-81
2021/01/23 09:30:01;;;;;;;4.03;1.52;;;;;;;;;;5033030;28;20183;-81
2021/01/23 09:32:27;;;;;;;2.35;1.30;;;;;;;;;;5035703;28;20229;-81
2021/01/23 09:34:54;;;;;;;4.50;1.70;;;;;;;;;;5040239;28;20221;-81
2021/01/23 09:37:23;;;;;;;2.15;1.70;;;;;;;;;;5043403;28;20456;-81
2021/01/23 09:39:49;;;;;;;2.95;2.08;;;;;;;;;;5045770;28;20170;-82
2021/01/23 09:42:15;;;;;;;3.08;1.75;;;;;;;;;;5026309;28;20181;-82
2021/01/23 09:44:41;;;;;;;2.88;1.30;;;;;;;;;;5025297;28;20194;-81
2021/01/23 09:47:09;;;;;;;4.65;1.60;;;;;;;;;;5042513;28;20197;-82
2021/01/23 09:49:36;;;;;;;2.60;1.40;;;;;;;;;;5041256;28;20192;-82
2021/01/23 09:52:02;;;;;;;5.53;2.35;;;;;;;;;;5027760;28;20185;-82
2021/01/23 09:54:28;;;;;;;1.50;1.40;;;;;;;;;;5037710;28;20672;-82
2021/01/23 09:56:54;;;;;;;3.90;1.27;;;;;;;;;;5036723;28;20193;-82
2021/01/23 09:59:20;;;;;;;1.45;1.10;;;;;;;;;;5037182;28;20438;-82
2021/01/23 10:01:47;;;;;;;3.05;1.33;;;;;;;;;;5031268;28;20253;-82
2021/01/23 10:04:13;;;;;;;3.40;1.98;;;;;;;;;;5032456;28;20186;-82
2021/01/23 10:06:39;;;;;;;3.20;1.77;;;;;;;;;;5036728;28;20190;-82
2021/01/23 10:09:05;;;;;;;3.10;1.20;;;;;;;;;;5027528;28;20201;-82
2021/01/23 10:11:31;;;;;;;1.92;1.60;;;;;;;;;;5040613;28;20463;-82
2021/01/23 10:13:57;;;;;;;1.95;1.27;;;;;;;;;;5033213;28;20265;-83
2021/01/23 10:16:24;;;;;;;6.88;1.75;;;;;;;;;;5031293;28;20189;-83
2021/01/23 10:18:50;;;;;;;2.28;1.05;;;;;;;;;;5034389;28;20171;-83
2021/01/23 10:21:16;;;;;;;1.37;1.07;;;;;;;;;;5023208;28;20225;-83
2021/01/23 10:23:42;;;;;;;3.88;1.42;;;;;;;;;;5039519;28;20505;-84
2021/01/23 10:26:08;;;;;;;1.40;1.17;;;;;;;;;;5025236;28;20211;-84
2021/01/23 10:28:34;;;;;;;3.80;1.83;;;;;;;;;;5042239;28;20185;-84
2021/01/23 10:31:00;;;;;;;3.97;1.13;;;;;;;;;;5027999;28;20640;-84
2021/01/23 10:33:26;;;;;;;1.33;1.23;;;;;;;;;;5028715;28;20457;-84
2021/01/23 10:35:51;;;;;;;1.70;1.20;;;;;;;;;;5026057;28;20575;-84
2021/01/23 10:38:18;;;;;;;1.20;0.90;;;;;;;;;;5041129;28;20190;-84
2021/01/23 10:40:44;;;;;;;2.97;1.20;;;;;;;;;;5042093;28;20432;-84
2021/01/23 10:43:10;;;;;;;1.85;1.35;;;;;;;;;;5040778;28;20218;-84
2021/01/23 10:45:36;;;;;;;3.63;1.40;;;;;;;;;;5027442;28;20256;-85
2021/01/23 10:48:02;;;;;;;2.65;1.20;;;;;;;;;;5036423;28;20187;-85
2021/01/23 10:50:28;;;;;;;1.80;1.20;;;;;;;;;;5036667;28;20240;-85
2021/01/23 10:52:54;;;;;;;1.73;1.42;;;;;;;;;;5034266;28;20182;-85
2021/01/23 10:55:20;;;;;;;2.47;1.65;;;;;;;;;;5030082;28;20207;-85
2021/01/23 10:57:46;;;;;;;4.28;1.48;;;;;;;;;;5019545;28;20265;-85
2021/01/23 11:00:13;;;;;;;5.63;2.10;;;;;;;;;;5021300;28;20217;-85
2021/01/23 11:02:39;;;;;;;2.55;2.05;;;;;;;;;;5017658;28;20475;-85
2021/01/23 11:05:06;;;;;;;8.05;2.22;;;;;;;;;;5029926;28;20202;-85
2021/01/23 11:07:32;;;;;;;3.63;1.75;;;;;;;;;;5031157;28;20680;-84
2021/01/23 11:09:58;;;;;;;3.10;2.00;;;;;;;;;;5026927;28;20185;-85
2021/01/23 11:12:24;;;;;;;2.80;2.57;;;;;;;;;;5042761;28;20224;-84
2021/01/23 11:14:50;;;;;;;4.00;2.70;;;;;;;;;;5023819;28;20459;-85
2021/01/23 11:17:16;;;;;;;3.58;2.20;;;;;;;;;;5024177;28;20456;-84
2021/01/23 11:19:42;;;;;;;3.03;2.40;;;;;;;;;;5029647;28;20352;-86
2021/01/23 11:22:11;;;;;;;10.60;2.85;;;;;;;;;;5024562;28;20188;-85
2021/01/23 11:24:37;;;;;;;6.78;2.60;;;;;;;;;;5026319;28;20194;-84
2021/01/23 11:27:03;;;;;;;6.47;3.45;;;;;;;;;;5019512;28;20190;-85
2021/01/23 11:29:29;;;;;;;3.75;2.40;;;;;;;;;;5022704;28;20674;-85
2021/01/23 11:31:55;;;;;;;3.17;1.90;;;;;;;;;;5027963;28;20221;-85
2021/01/23 11:34:21;;;;;;;3.00;1.57;;;;;;;;;;5045386;28;20464;-85
2021/01/23 11:36:47;;;;;;;2.73;1.77;;;;;;;;;;5045840;28;20413;-84
2021/01/23 11:39:13;;;;;;;2.85;1.60;;;;;;;;;;5032386;28;20630;-86
2021/01/23 11:41:39;;;;;;;1.60;1.50;;;;;;;;;;5035499;28;20182;-85
2021/01/23 11:44:06;;;;;;;7.50;2.10;;;;;;;;;;5029035;28;20182;-86
2021/01/23 11:46:32;;;;;;;4.72;1.80;;;;;;;;;;5036777;28;20220;-85
2021/01/23 11:48:58;;;;;;;3.90;2.10;;;;;;;;;;5051068;28;20186;-86
2021/01/23 11:51:24;;;;;;;2.40;1.85;;;;;;;;;;5041528;28;20794;-85
2021/01/23 11:53:51;;;;;;;5.85;2.10;;;;;;;;;;5035083;28;20281;-84
2021/01/23 11:56:18;;;;;;;4.80;1.90;;;;;;;;;;5038906;28;20538;-83
2021/01/23 11:58:44;;;;;;;5.05;1.85;;;;;;;;;;5055032;28;20197;-81
2021/01/23 12:01:10;;;;;;;3.20;2.05;;;;;;;;;;5034630;28;20227;-82
2021/01/23 12:03:36;;;;;;;2.92;1.88;;;;;;;;;;5042922;28;20174;-81
2021/01/23 12:06:02;;;;;;;4.30;1.77;;;;;;;;;;5035326;28;20189;-81
2021/01/23 12:08:28;;;;;;;2.80;1.80;;;;;;;;;;5055706;28;20648;-81
2021/01/23 12:10:54;;;;;;;2.10;1.53;;;;;;;;;;5032450;28;20189;-80
2021/01/23 12:13:20;;;;;;;3.00;1.30;;;;;;;;;;5045269;28;20438;-81
2021/01/23 12:15:46;;;;;;;1.50;1.23;;;;;;;;;;5033074;28;20206;-80
2021/01/23 12:18:12;;;;;;;5.10;2.65;;;;;;;;;;5034983;28;20162;-81
2021/01/23 12:20:38;;;;;;;4.03;3.30;;;;;;;;;;5033343;28;20726;-81
2021/01/23 12:23:04;;;;;;;4.23;3.40;;;;;;;;;;5059485;28;20205;-81
2021/01/23 12:25:30;;;;;;;5.78;3.88;;;;;;;;;;5045261;28;20437;-80
2021/01/23 12:27:56;;;;;;;6.70;2.70;;;;;;;;;;5042989;28;20186;-81
2021/01/23 12:30:22;;;;;;;7.85;5.40;;;;;;;;;;5040018;28;20750;-81
2021/01/23 12:32:49;;;;;;;2.80;2.60;;;;;;;;;;5039866;28;20229;-82
2021/01/23 12:35:15;;;;;;;7.22;2.08;;;;;;;;;;5033025;28;20228;-82
2021/01/23 12:37:43;;;;;;;3.65;2.28;;;;;;;;;;5037219;28;20214;-82
2021/01/23 12:40:09;;;;;;;6.20;4.53;;;;;;;;;;5016055;28;20177;-82
2021/01/23 12:42:35;;;;;;;4.53;3.58;;;;;;;;;;5025413;28;20243;-82
2021/01/23 12:45:02;;;;;;;6.70;3.92;;;;;;;;;;5034538;28;20186;-82
2021/01/23 12:47:28;;;;;;;3.35;3.05;;;;;;;;;;5030654;28;20190;-83
2021/01/23 12:49:54;;;;;;;4.18;2.55;;;;;;;;;;5029047;28;20177;-83
2021/01/23 12:52:20;;;;;;;4.07;2.70;;;;;;;;;;5029613;28;20185;-82
2021/01/23 12:54:46;;;;;;;3.45;2.90;;;;;;;;;;5027193;28;20232;-83
2021/01/23 12:57:12;;;;;;;7.03;2.77;;;;;;;;;;5021580;28;20174;-82
2021/01/23 12:59:38;;;;;;;3.10;2.80;;;;;;;;;;5031045;28;20445;-82
2021/01/23 13:02:04;;;;;;;3.60;2.55;;;;;;;;;;5038128;28;20451;-82
2021/01/23 13:04:30;;;;;;;4.90;2.55;;;;;;;;;;5037015;28;20195;-82
2021/01/23 13:06:56;;;;;;;5.32;2.50;;;;;;;;;;5025284;28;20316;-84
2021/01/23 13:09:22;;;;;;;4.63;2.20;;;;;;;;;;5019419;28;20183;-83
2021/01/23 13:11:48;;;;;;;5.32;2.10;;;;;;;;;;5034533;28;20444;-83
2021/01/23 13:14:14;;;;;;;4.30;1.80;;;;;;;;;;5015546;28;20226;-82
2021/01/23 13:16:40;;;;;;;6.97;2.40;;;;;;;;;;5039310;28;20207;-82
2021/01/23 13:19:08;;;;;;;3.63;2.58;;;;;;;;;;5029404;28;20187;-84
2021/01/23 13:21:34;;;;;;;3.20;1.40;;;;;;;;;;5025166;28;20247;-83
2021/01/23 13:24:00;;;;;;;1.70;1.40;;;;;;;;;;5013446;28;20218;-82
2021/01/23 13:26:26;;;;;;;3.80;1.80;;;;;;;;;;5018831;28;20555;-85
2021/01/23 13:28:52;;;;;;;2.78;1.08;;;;;;;;;;5028543;28;20643;-85
2021/01/23 13:31:18;;;;;;;4.13;1.50;;;;;;;;;;5036732;28;20310;-86
2021/01/23 13:33:44;;;;;;;1.95;1.55;;;;;;;;;;5038271;28;20437;-84
2021/01/23 13:36:10;;;;;;;2.28;1.38;;;;;;;;;;5039833;28;20169;-85
2021/01/23 13:38:36;;;;;;;2.47;1.23;;;;;;;;;;5052825;28;20181;-83
2021/01/23 13:41:02;;;;;;;2.92;1.75;;;;;;;;;;5025710;28;20195;-83
2021/01/23 13:43:30;;;;;;;4.13;2.08;;;;;;;;;;5027412;28;20186;-82
2021/01/23 13:45:56;;;;;;;4.20;1.80;;;;;;;;;;5031702;28;20179;-84
2021/01/23 13:48:22;;;;;;;6.43;2.90;;;;;;;;;;5035222;28;20175;-86
2021/01/23 13:50:48;;;;;;;1.27;1.15;;;;;;;;;;5054677;28;20187;-83
2021/01/23 13:53:14;;;;;;;2.38;2.17;;;;;;;;;;5055648;28;20222;-85
2021/01/23 13:55:40;;;;;;;1.60;1.50;;;;;;;;;;5054509;28;20236;-84
2021/01/23 13:58:06;;;;;;;2.45;1.70;;;;;;;;;;5040231;28;20178;-89
2021/01/23 14:00:32;;;;;;;2.00;1.77;;;;;;;;;;5039423;28;20180;-85
2021/01/23 14:02:58;;;;;;;3.05;2.55;;;;;;;;;;5030836;28;20221;-86
2021/01/23 14:05:24;;;;;;;2.37;2.17;;;;;;;;;;5039801;28;20249;-85
2021/01/23 14:07:50;;;;;;;2.75;2.28;;;;;;;;;;5038474;28;20451;-86
2021/01/23 14:10:16;;;;;;;2.47;2.03;;;;;;;;;;5035788;28;20193;-86
2021/01/23 14:12:42;;;;;;;4.15;2.22;;;;;;;;;;5034307;28;20434;-83
2021/01/23 14:15:08;;;;;;;1.50;1.40;;;;;;;;;;5035615;28;20214;-86
2021/01/23 14:17:34;;;;;;;5.57;1.92;;;;;;;;;;5037931;28;20178;-88
2021/01/23 14:20:00;;;;;;;2.20;1.95;;;;;;;;;;5029970;28;20182;-86
2021/01/23 14:22:26;;;;;;;2.75;1.85;;;;;;;;;;5037334;28;20227;-88
2021/01/23 14:24:52;;;;;;;2.45;2.10;;;;;;;;;;5058368;28;20635;-88
2021/01/23 14:27:19;;;;;;;2.88;1.95;;;;;;;;;;5043155;28;20184;-86
2021/01/23 14:29:46;;;;;;;3.72;1.80;;;;;;;;;;5042444;28;20196;-90
2021/01/23 14:32:12;;;;;;;2.55;1.60;;;;;;;;;;5043214;28;20232;-86
2021/01/23 14:34:38;;;;;;;2.60;2.33;;;;;;;;;;5043035;28;20217;-89
2021/01/23 14:37:04;;;;;;;2.45;1.90;;;;;;;;;;5043785;28;20186;-88
2021/01/23 14:39:30;;;;;;;1.95;1.85;;;;;;;;;;5042107;28;20209;-90
2021/01/23 14:41:56;;;;;;;2.55;2.35;;;;;;;;;;5034681;28;20190;-92